createdAt,value
2023-10-21T00:01:58.913Z,6.26
2023-10-21T00:04:45.172Z,6.41
2023-10-21T00:07:32.353Z,6.44
2023-10-21T00:10:18.630Z,6.52
2023-10-21T00:13:05.224Z,6.50
2023-10-21T00:15:50.839Z,6.31
2023-10-21T00:18:36.815Z,6.30
2023-10-21T00:21:23.064Z,6.47
2023-10-21T00:24:09.338Z,6.30
2023-10-21T00:26:55.389Z,6.35
2023-10-21T00:29:41.266Z,6.49
2023-10-21T00:32:26.781Z,6.40
2023-10-21T00:35:13.213Z,6.39
2023-10-21T00:37:59.172Z,6.45
2023-10-21T00:40:56.910Z,6.51
2023-10-21T00:43:43.890Z,6.16
2023-10-21T00:46:29.743Z,6.45
2023-10-21T00:49:15.520Z,6.52
2023-10-21T00:52:02.114Z,6.52
2023-10-21T00:54:47.706Z,6.27
2023-10-21T00:57:33.701Z,6.42
2023-10-21T01:00:20.128Z,6.41
2023-10-21T01:03:06.449Z,6.48
2023-10-21T01:05:53.935Z,6.26
2023-10-21T01:08:49.591Z,6.49
2023-10-21T01:11:35.848Z,6.50
2023-10-21T01:14:22.008Z,6.27
2023-10-21T01:17:09.580Z,6.16
2023-10-21T01:19:59.195Z,6.40
2023-10-21T01:22:45.609Z,6.53
2023-10-21T01:25:33.596Z,6.70
2023-10-21T01:28:19.143Z,6.47
2023-10-21T01:31:05.670Z,6.50
2023-10-21T01:33:51.151Z,6.73
2023-10-21T01:36:37.503Z,6.49
2023-10-21T01:39:23.057Z,6.65
2023-10-21T01:42:09.597Z,6.66
2023-10-21T01:44:56.771Z,6.63
2023-10-21T01:47:43.008Z,6.65
2023-10-21T01:50:29.525Z,6.53
2023-10-21T01:53:15.498Z,6.61
2023-10-21T01:56:04.898Z,6.59
2023-10-21T01:58:50.736Z,6.58
2023-10-21T02:01:36.475Z,6.52
2023-10-21T02:04:22.686Z,6.63
2023-10-21T02:07:08.942Z,6.52
2023-10-21T02:09:55.243Z,6.62
2023-10-21T02:12:41.329Z,6.63
2023-10-21T02:15:27.145Z,6.75
2023-10-21T02:18:12.788Z,6.68
2023-10-21T02:20:59.647Z,6.65
2023-10-21T02:23:45.780Z,6.52
2023-10-21T02:26:31.586Z,6.91
2023-10-21T02:29:17.366Z,6.68
2023-10-21T02:32:05.156Z,6.62
2023-10-21T02:34:54.986Z,6.83
2023-10-21T02:37:41.895Z,6.92
2023-10-21T02:40:27.713Z,6.99
2023-10-21T02:43:14.007Z,6.96
2023-10-21T02:46:13.680Z,7.03
2023-10-21T02:49:00.049Z,6.79
2023-10-21T02:51:45.587Z,7.05
2023-10-21T02:54:32.295Z,6.97
2023-10-21T02:57:18.246Z,7.03
2023-10-21T03:00:07.162Z,6.94
2023-10-21T03:02:53.311Z,7.11
2023-10-21T03:05:40.684Z,7.08
2023-10-21T03:08:26.177Z,7.10
2023-10-21T03:11:12.373Z,7.25
2023-10-21T03:13:59.063Z,7.31
2023-10-21T03:16:45.724Z,7.08
2023-10-21T03:19:31.354Z,7.33
2023-10-21T03:22:17.850Z,7.34
2023-10-21T03:25:03.759Z,7.33
2023-10-21T03:27:50.042Z,7.48
2023-10-21T03:30:35.766Z,7.31
2023-10-21T03:33:21.674Z,7.28
2023-10-21T03:36:08.599Z,7.36
2023-10-21T03:38:54.755Z,7.20
2023-10-21T03:41:41.190Z,7.26
2023-10-21T03:44:27.357Z,7.25
2023-10-21T03:47:13.141Z,7.26
2023-10-21T03:49:59.164Z,7.05
2023-10-21T03:52:44.655Z,7.35
2023-10-21T03:55:30.781Z,7.35
2023-10-21T03:58:16.529Z,7.30
2023-10-21T04:01:02.438Z,7.42
2023-10-21T04:03:48.449Z,7.61
2023-10-21T04:06:34.439Z,7.48
2023-10-21T04:09:20.146Z,7.73
2023-10-21T04:12:06.437Z,7.68
2023-10-21T04:14:52.356Z,7.62
2023-10-21T04:17:39.601Z,7.49
2023-10-21T04:20:25.249Z,7.62
2023-10-21T04:23:11.039Z,7.73
2023-10-21T04:25:56.717Z,7.80
2023-10-21T04:28:43.449Z,7.84
2023-10-21T04:31:35.191Z,7.62
2023-10-21T04:34:22.624Z,7.82
2023-10-21T04:37:08.865Z,7.69
2023-10-21T04:39:55.187Z,7.71
2023-10-21T04:42:40.749Z,7.49
2023-10-21T04:45:27.012Z,7.65
2023-10-21T04:48:12.950Z,7.67
2023-10-21T04:50:59.133Z,7.82
2023-10-21T04:53:44.690Z,7.66
2023-10-21T04:56:30.536Z,7.84
2023-10-21T04:59:16.089Z,7.48
2023-10-21T05:02:02.317Z,7.41
2023-10-21T05:04:49.608Z,7.60
2023-10-21T05:07:35.634Z,7.69
2023-10-21T05:10:22.550Z,7.65
2023-10-21T05:13:09.553Z,7.62
2023-10-21T05:15:55.787Z,7.54
2023-10-21T05:18:41.864Z,7.42
2023-10-21T05:21:27.929Z,7.66
2023-10-21T05:24:13.978Z,7.28
2023-10-21T05:27:00.287Z,7.47
2023-10-21T05:29:46.416Z,7.64
2023-10-21T05:32:32.110Z,7.45
2023-10-21T05:35:18.730Z,7.65
2023-10-21T05:38:04.484Z,7.44
2023-10-21T05:40:50.567Z,7.39
2023-10-21T05:43:37.641Z,7.30
2023-10-21T05:46:23.836Z,7.31
2023-10-21T05:49:09.869Z,7.36
2023-10-21T05:51:57.227Z,7.14
2023-10-21T05:54:43.463Z,7.37
2023-10-21T05:57:29.952Z,7.41
2023-10-21T06:00:16.381Z,7.44
2023-10-21T06:03:03.398Z,7.70
2023-10-21T06:05:50.096Z,8.05
2023-10-21T06:08:36.045Z,8.40
2023-10-21T06:11:21.697Z,8.64
2023-10-21T06:14:07.971Z,8.85
2023-10-21T06:16:53.674Z,8.85
2023-10-21T06:19:40.528Z,8.89
2023-10-21T06:22:27.478Z,9.07
2023-10-21T06:25:17.330Z,8.96
2023-10-21T06:28:03.193Z,9.07
2023-10-21T06:30:49.355Z,9.07
2023-10-21T06:33:36.778Z,9.09
2023-10-21T06:36:23.726Z,9.08
2023-10-21T06:39:09.609Z,9.33
2023-10-21T06:41:58.583Z,9.44
2023-10-21T06:44:44.932Z,9.22
2023-10-21T06:47:31.689Z,9.00
2023-10-21T06:50:20.306Z,9.16
2023-10-21T06:53:08.046Z,9.13
2023-10-21T06:55:55.709Z,9.12
2023-10-21T06:58:42.609Z,9.18
2023-10-21T07:01:28.613Z,9.29
2023-10-21T07:04:16.063Z,9.09
2023-10-21T07:07:02.754Z,9.07
2023-10-21T07:09:48.919Z,8.87
2023-10-21T07:12:39.955Z,8.83
2023-10-21T07:15:32.546Z,8.47
2023-10-21T07:18:19.316Z,8.70
2023-10-21T07:21:06.352Z,8.45
2023-10-21T07:23:52.422Z,8.54
2023-10-21T07:26:41.283Z,8.50
2023-10-21T07:29:26.906Z,8.67
2023-10-21T07:32:13.075Z,8.63
2023-10-21T07:34:58.958Z,8.52
2023-10-21T07:37:48.207Z,8.41
2023-10-21T07:40:33.775Z,8.40
2023-10-21T07:43:19.646Z,8.65
2023-10-21T07:46:06.065Z,8.73
2023-10-21T07:48:53.187Z,8.64
2023-10-21T07:51:39.342Z,8.62
2023-10-21T07:54:25.437Z,8.30
2023-10-21T07:57:11.091Z,8.70
2023-10-21T07:59:57.779Z,8.72
2023-10-21T08:02:44.477Z,8.70
2023-10-21T08:05:31.121Z,8.62
2023-10-21T08:08:17.016Z,8.67
2023-10-21T08:11:04.111Z,8.79
2023-10-21T08:13:52.012Z,8.81
2023-10-21T08:16:38.556Z,8.85
2023-10-21T08:19:25.992Z,8.87
2023-10-21T08:22:12.244Z,8.89
2023-10-21T08:24:59.244Z,8.99
2023-10-21T08:27:45.953Z,8.89
2023-10-21T08:30:32.114Z,9.18
2023-10-21T08:33:18.648Z,8.88
2023-10-21T08:36:05.523Z,9.16
2023-10-21T08:38:51.806Z,9.31
2023-10-21T08:41:41.357Z,9.30
2023-10-21T08:44:27.810Z,9.28
2023-10-21T08:47:15.763Z,9.35
2023-10-21T08:50:05.183Z,9.32
2023-10-21T08:52:51.830Z,9.47
2023-10-21T08:55:40.341Z,9.51
2023-10-21T08:58:32.391Z,9.73
2023-10-21T09:01:18.811Z,9.68
2023-10-21T09:04:05.590Z,9.76
2023-10-21T09:06:59.314Z,9.71
2023-10-21T09:09:45.071Z,9.64
2023-10-21T09:12:31.909Z,9.45
2023-10-21T09:15:18.105Z,9.40
2023-10-21T09:18:12.155Z,9.61
2023-10-21T09:20:58.358Z,9.72
2023-10-21T09:23:52.616Z,9.83
2023-10-21T09:26:40.384Z,9.58
2023-10-21T09:29:27.904Z,9.35
2023-10-21T09:32:15.098Z,9.63
2023-10-21T09:35:39.775Z,9.61
2023-10-21T09:38:26.112Z,9.40
2023-10-21T09:41:15.032Z,9.54
2023-10-21T09:44:04.114Z,9.81
2023-10-21T09:46:50.677Z,9.61
2023-10-21T09:49:40.710Z,9.64
2023-10-21T09:52:31.668Z,9.81
2023-10-21T09:55:19.334Z,9.80
2023-10-21T09:58:06.476Z,10.11
2023-10-21T10:00:52.510Z,10.27
2023-10-21T10:03:40.591Z,10.25
2023-10-21T10:06:30.534Z,10.39
2023-10-21T10:09:23.401Z,10.00
2023-10-21T10:12:25.380Z,10.42
2023-10-21T10:15:38.949Z,10.45
2023-10-21T10:18:26.673Z,10.52
2023-10-21T10:21:16.331Z,10.36
2023-10-21T10:24:05.217Z,10.40
2023-10-21T10:26:53.134Z,10.28
2023-10-21T10:29:39.225Z,10.24
2023-10-21T10:32:30.837Z,10.24
2023-10-21T10:35:34.078Z,10.30
2023-10-21T10:38:33.689Z,10.25
2023-10-21T10:41:20.191Z,10.41
2023-10-21T10:44:07.385Z,10.53
2023-10-21T10:46:54.993Z,10.48
2023-10-21T10:50:00.960Z,10.47
2023-10-21T10:52:47.506Z,10.45
2023-10-21T10:55:33.950Z,10.33
2023-10-21T10:58:20.121Z,10.39
2023-10-21T11:01:09.315Z,10.62
2023-10-21T11:04:01.983Z,10.68
2023-10-21T11:06:49.097Z,10.71
2023-10-21T11:09:35.274Z,10.61
2023-10-21T11:12:21.812Z,10.74
2023-10-21T11:15:08.216Z,10.80
2023-10-21T11:17:55.132Z,10.75
2023-10-21T11:20:48.372Z,10.85
2023-10-21T11:23:38.789Z,10.79
2023-10-21T11:26:24.305Z,10.67
2023-10-21T11:29:18.931Z,10.59
2023-10-21T11:32:05.175Z,10.64
2023-10-21T11:34:51.127Z,10.64
2023-10-21T11:37:43.738Z,10.88
2023-10-21T11:40:31.357Z,10.75
2023-10-21T11:43:18.908Z,10.91
2023-10-21T11:46:06.998Z,10.87
2023-10-21T11:48:52.854Z,11.00
2023-10-21T11:51:39.368Z,11.02
2023-10-21T11:54:34.869Z,10.79
2023-10-21T11:57:41.309Z,10.90
2023-10-21T12:00:47.997Z,10.63
2023-10-21T12:03:53.413Z,11.02
2023-10-21T12:07:11.574Z,11.11
2023-10-21T12:10:10.086Z,11.12
2023-10-21T12:13:11.057Z,11.11
2023-10-21T12:16:16.465Z,11.13
2023-10-21T12:19:20.841Z,11.25
2023-10-21T12:22:26.713Z,11.15
2023-10-21T12:25:36.637Z,11.16
2023-10-21T12:28:34.822Z,11.36
2023-10-21T12:31:27.104Z,11.30
2023-10-21T12:34:31.839Z,11.23
2023-10-21T12:37:21.675Z,11.46
2023-10-21T12:40:34.541Z,11.06
2023-10-21T12:43:25.783Z,11.38
2023-10-21T12:46:23.606Z,11.55
2023-10-21T12:49:26.008Z,11.45
2023-10-21T12:52:13.796Z,11.54
2023-10-21T12:55:00.892Z,11.31
2023-10-21T12:57:51.493Z,11.49
2023-10-21T13:00:38.168Z,11.35
2023-10-21T13:03:24.988Z,11.45
2023-10-21T13:06:11.294Z,11.59
2023-10-21T13:08:58.345Z,11.55
2023-10-21T13:11:43.902Z,11.53
2023-10-21T13:14:29.896Z,11.62
2023-10-21T13:17:15.576Z,11.50
2023-10-21T13:20:01.380Z,11.65
2023-10-21T13:22:49.426Z,11.63
2023-10-21T13:25:37.539Z,11.67
2023-10-21T13:28:23.374Z,11.72
2023-10-21T13:31:10.549Z,11.63
2023-10-21T13:33:56.717Z,11.65
2023-10-21T13:36:43.016Z,11.78
2023-10-21T13:39:32.070Z,11.69
2023-10-21T13:42:18.943Z,11.57
2023-10-21T13:45:06.953Z,11.48
2023-10-21T13:47:57.135Z,11.73
2023-10-21T13:50:44.423Z,11.68
2023-10-21T13:53:33.753Z,11.69
2023-10-21T13:56:19.889Z,11.65
2023-10-21T13:59:17.071Z,11.70
2023-10-21T14:02:02.877Z,11.57
2023-10-21T14:04:49.345Z,11.68
2023-10-21T14:07:35.607Z,11.61
2023-10-21T14:10:21.949Z,11.63
2023-10-21T14:13:09.212Z,11.73
2023-10-21T14:15:59.213Z,11.73
2023-10-21T14:18:46.036Z,11.64
2023-10-21T14:21:34.347Z,11.64
2023-10-21T14:24:20.659Z,11.68
2023-10-21T14:27:09.427Z,11.73
2023-10-21T14:30:11.376Z,11.66
2023-10-21T14:32:57.545Z,11.46
2023-10-21T14:35:45.444Z,11.61
2023-10-21T14:38:31.764Z,11.74
2023-10-21T14:41:17.827Z,11.69
2023-10-21T14:44:04.409Z,11.71
2023-10-21T14:46:50.420Z,11.63
2023-10-21T14:49:37.202Z,11.65
2023-10-21T14:52:24.184Z,11.71
2023-10-21T14:55:10.460Z,11.68
2023-10-21T14:57:56.193Z,11.63
2023-10-21T15:00:43.944Z,11.52
2023-10-21T15:03:30.462Z,11.69
2023-10-21T15:06:16.667Z,11.69
2023-10-21T15:09:02.823Z,11.67
2023-10-21T15:11:49.212Z,11.63
2023-10-21T15:14:45.782Z,11.43
2023-10-21T15:17:42.341Z,11.56
2023-10-21T15:20:29.956Z,11.63
2023-10-21T15:23:15.978Z,11.54
2023-10-21T15:26:02.105Z,11.60
2023-10-21T15:28:48.551Z,11.32
2023-10-21T15:31:36.477Z,11.45
2023-10-21T15:34:25.046Z,11.35
2023-10-21T15:37:11.646Z,11.35
2023-10-21T15:39:57.965Z,10.99
2023-10-21T15:42:45.069Z,11.42
2023-10-21T15:45:31.588Z,11.30
2023-10-21T15:48:17.447Z,11.19
2023-10-21T15:51:15.016Z,11.07
2023-10-21T15:54:01.282Z,11.14
2023-10-21T15:56:50.352Z,11.14
2023-10-21T15:59:36.373Z,10.98
2023-10-21T16:02:23.379Z,11.13
2023-10-21T16:05:10.034Z,11.07
2023-10-21T16:07:58.207Z,11.07
2023-10-21T16:10:45.139Z,10.89
2023-10-21T16:13:31.658Z,11.00
2023-10-21T16:16:22.960Z,10.99
2023-10-21T16:19:09.690Z,11.01
2023-10-21T16:21:55.558Z,10.94
2023-10-21T16:24:41.514Z,10.77
2023-10-21T16:27:27.689Z,10.90
2023-10-21T16:30:14.104Z,11.00
2023-10-21T16:33:00.284Z,10.93
2023-10-21T16:35:47.705Z,10.84
2023-10-21T16:38:33.607Z,10.73
2023-10-21T16:41:20.062Z,10.71
2023-10-21T16:44:05.796Z,10.68
2023-10-21T16:46:52.187Z,10.83
2023-10-21T16:49:38.584Z,10.66
2023-10-21T16:52:27.116Z,10.70
2023-10-21T16:55:13.384Z,10.86
2023-10-21T16:57:59.660Z,10.85
2023-10-21T17:00:45.426Z,10.68
2023-10-21T17:03:32.042Z,10.67
2023-10-21T17:06:18.232Z,10.44
2023-10-21T17:09:07.279Z,10.39
2023-10-21T17:11:53.079Z,10.59
2023-10-21T17:14:39.467Z,10.71
2023-10-21T17:17:26.842Z,10.64
2023-10-21T17:20:13.320Z,10.77
2023-10-21T17:22:59.678Z,10.77
2023-10-21T17:25:47.376Z,10.48
2023-10-21T17:28:33.980Z,10.61
2023-10-21T17:31:20.275Z,10.57
2023-10-21T17:34:06.473Z,10.41
2023-10-21T17:36:52.672Z,10.48
2023-10-21T17:39:38.847Z,10.29
2023-10-21T17:42:25.213Z,10.47
2023-10-21T17:45:11.495Z,10.50
2023-10-21T17:47:58.318Z,10.45
2023-10-21T17:50:44.627Z,10.47
2023-10-21T17:53:30.406Z,10.36
2023-10-21T17:56:16.424Z,10.29
2023-10-21T17:59:02.501Z,10.34
2023-10-21T18:01:48.736Z,10.51
2023-10-21T18:04:35.311Z,10.61
2023-10-21T18:07:23.774Z,10.61
2023-10-21T18:10:10.444Z,10.45
2023-10-21T18:12:56.860Z,10.41
2023-10-21T18:15:42.932Z,10.48
2023-10-21T18:18:29.367Z,10.46
2023-10-21T18:21:16.227Z,10.50
2023-10-21T18:24:02.958Z,10.48
2023-10-21T18:26:50.578Z,10.42
2023-10-21T18:29:36.852Z,10.39
2023-10-21T18:32:23.778Z,10.46
2023-10-21T18:35:09.447Z,10.42
2023-10-21T18:38:00.359Z,10.57
2023-10-21T18:40:47.660Z,10.60
2023-10-21T18:43:35.000Z,10.32
2023-10-21T18:46:21.396Z,10.15
2023-10-21T18:49:08.519Z,10.41
2023-10-21T18:51:54.745Z,10.49
2023-10-21T18:54:42.847Z,10.54
2023-10-21T18:57:57.300Z,10.61
2023-10-21T19:01:09.662Z,10.26
2023-10-21T19:04:14.921Z,10.38
2023-10-21T19:07:02.071Z,10.41
2023-10-21T19:09:47.799Z,10.41
2023-10-21T19:12:34.304Z,10.42
2023-10-21T19:15:20.524Z,10.44
2023-10-21T19:18:09.045Z,10.42
2023-10-21T19:20:55.029Z,10.57
2023-10-21T19:23:41.904Z,10.52
2023-10-21T19:26:28.264Z,10.57
2023-10-21T19:29:14.672Z,10.53
2023-10-21T19:32:01.329Z,10.47
2023-10-21T19:34:47.763Z,10.53
2023-10-21T19:37:34.483Z,10.47
2023-10-21T19:40:22.136Z,10.47
2023-10-21T19:43:08.477Z,10.32
2023-10-21T19:45:54.960Z,10.27
2023-10-21T19:48:40.985Z,10.18
2023-10-21T19:51:27.804Z,10.31
2023-10-21T19:54:13.706Z,10.36
2023-10-21T19:57:00.395Z,10.39
2023-10-21T19:59:46.098Z,10.40
2023-10-21T20:02:32.549Z,10.48
2023-10-21T20:05:18.173Z,10.47
2023-10-21T20:08:05.093Z,10.67
2023-10-21T20:11:05.296Z,10.67
2023-10-21T20:13:58.063Z,10.64
2023-10-21T20:16:49.059Z,10.74
2023-10-21T20:19:35.744Z,10.43
2023-10-21T20:22:21.935Z,10.51
2023-10-21T20:25:09.628Z,10.49
2023-10-21T20:27:55.936Z,10.55
2023-10-21T20:30:46.835Z,10.72
2023-10-21T20:33:34.606Z,10.76
2023-10-21T20:36:22.662Z,10.49
2023-10-21T20:39:09.984Z,10.63
2023-10-21T20:42:00.286Z,10.68
2023-10-21T20:44:49.410Z,10.75
2023-10-21T20:47:35.609Z,10.55
2023-10-21T20:50:21.681Z,10.61
2023-10-21T20:53:08.385Z,10.69
2023-10-21T20:55:54.988Z,10.56
2023-10-21T20:58:41.387Z,10.56
2023-10-21T21:01:36.904Z,10.62
2023-10-21T21:04:25.382Z,10.55
2023-10-21T21:07:10.968Z,10.40
2023-10-21T21:10:02.775Z,10.12
2023-10-21T21:12:51.864Z,10.02
2023-10-21T21:15:38.707Z,9.92
2023-10-21T21:18:25.989Z,10.09
2023-10-21T21:21:13.281Z,10.19
2023-10-21T21:23:59.074Z,10.14
2023-10-21T21:26:47.408Z,9.96
2023-10-21T21:29:33.251Z,9.77
2023-10-21T21:32:19.686Z,9.83
2023-10-21T21:35:05.741Z,9.61
2023-10-21T21:37:52.042Z,9.86
2023-10-21T21:40:38.300Z,10.01
2023-10-21T21:43:24.319Z,10.09
2023-10-21T21:46:23.306Z,10.09
2023-10-21T21:49:09.679Z,9.94
2023-10-21T21:51:55.374Z,10.34
2023-10-21T21:54:43.624Z,10.32
2023-10-21T21:57:29.359Z,10.19
2023-10-21T22:00:30.869Z,10.19
2023-10-21T22:03:16.549Z,9.99
2023-10-21T22:06:03.900Z,10.21
2023-10-21T22:08:49.545Z,10.03
2023-10-21T22:11:35.964Z,10.04
2023-10-21T22:14:23.299Z,10.00
2023-10-21T22:17:09.780Z,10.14
2023-10-21T22:19:56.408Z,10.36
2023-10-21T22:22:42.547Z,10.25
2023-10-21T22:25:29.175Z,10.38
2023-10-21T22:28:16.058Z,10.55
2023-10-21T22:31:05.397Z,10.55
2023-10-21T22:33:51.816Z,10.53
2023-10-21T22:36:37.907Z,10.35
2023-10-21T22:39:24.469Z,10.20
2023-10-21T22:42:10.318Z,10.41
2023-10-21T22:44:57.037Z,10.35
2023-10-21T22:47:44.939Z,10.33
2023-10-21T22:50:31.466Z,10.12
2023-10-21T22:53:19.030Z,10.42
2023-10-21T22:56:06.491Z,10.13
2023-10-21T22:58:52.722Z,10.54
2023-10-21T23:01:40.405Z,10.57
2023-10-21T23:04:26.954Z,10.55
2023-10-21T23:07:13.646Z,10.59
2023-10-21T23:10:00.399Z,10.60
2023-10-21T23:12:52.301Z,10.70
2023-10-21T23:15:45.029Z,10.69
2023-10-21T23:18:31.390Z,10.30
2023-10-21T23:21:17.347Z,10.55
2023-10-21T23:24:03.840Z,10.13
2023-10-21T23:26:49.413Z,10.17
2023-10-21T23:29:35.764Z,10.15
2023-10-21T23:32:21.593Z,10.12
2023-10-21T23:35:09.357Z,10.28
2023-10-21T23:37:56.248Z,10.06
2023-10-21T23:40:43.719Z,10.05
2023-10-21T23:43:29.219Z,10.35
2023-10-21T23:46:15.393Z,10.35
2023-10-21T23:49:01.736Z,10.24
2023-10-21T23:51:48.024Z,10.28
2023-10-21T23:54:35.338Z,10.25
2023-10-21T23:57:21.602Z,10.32
